sensor_id;sensor_type;location;lat;lon;timestamp;temperature;humidity
80579;SHT31;69939;52.402;6.608;2023-12-22T00:00:22;7.08;80.68
80579;SHT31;69939;52.402;6.608;2023-12-22T00:02:51;7.07;80.80
80579;SHT31;69939;52.402;6.608;2023-12-22T00:05:21;6.99;81.33
80579;SHT31;69939;52.402;6.608;2023-12-22T00:07:50;6.99;80.88
80579;SHT31;69939;52.402;6.608;2023-12-22T00:10:20;7.07;80.69
80579;SHT31;69939;52.402;6.608;2023-12-22T00:12:52;7.10;80.75
80579;SHT31;69939;52.402;6.608;2023-12-22T00:15:29;7.14;80.60
80579;SHT31;69939;52.402;6.608;2023-12-22T00:17:58;7.08;81.30
80579;SHT31;69939;52.402;6.608;2023-12-22T00:20:28;7.14;80.65
80579;SHT31;69939;52.402;6.608;2023-12-22T00:22:58;7.11;81.07
80579;SHT31;69939;52.402;6.608;2023-12-22T00:25:27;7.06;81.29
80579;SHT31;69939;52.402;6.608;2023-12-22T00:27:56;7.07;81.16
80579;SHT31;69939;52.402;6.608;2023-12-22T00:30:28;7.17;80.32
80579;SHT31;69939;52.402;6.608;2023-12-22T00:32:58;7.14;79.96
80579;SHT31;69939;52.402;6.608;2023-12-22T00:35:28;7.04;80.97
80579;SHT31;69939;52.402;6.608;2023-12-22T00:37:58;7.16;80.16
80579;SHT31;69939;52.402;6.608;2023-12-22T00:40:27;7.16;80.19
80579;SHT31;69939;52.402;6.608;2023-12-22T00:42:57;7.20;80.05
80579;SHT31;69939;52.402;6.608;2023-12-22T00:45:29;7.11;80.58
80579;SHT31;69939;52.402;6.608;2023-12-22T00:47:59;7.08;80.50
80579;SHT31;69939;52.402;6.608;2023-12-22T00:50:30;7.17;79.57
80579;SHT31;69939;52.402;6.608;2023-12-22T00:53:09;7.08;80.35
80579;SHT31;69939;52.402;6.608;2023-12-22T00:55:38;7.08;79.96
80579;SHT31;69939;52.402;6.608;2023-12-22T00:58:08;7.08;79.94
80579;SHT31;69939;52.402;6.608;2023-12-22T01:00:37;7.16;79.24
80579;SHT31;69939;52.402;6.608;2023-12-22T01:03:06;7.07;79.71
80579;SHT31;69939;52.402;6.608;2023-12-22T01:05:37;7.08;79.57
80579;SHT31;69939;52.402;6.608;2023-12-22T01:08:09;7.10;79.36
80579;SHT31;69939;52.402;6.608;2023-12-22T01:10:38;7.08;79.33
80579;SHT31;69939;52.402;6.608;2023-12-22T01:13:08;7.00;80.07
80579;SHT31;69939;52.402;6.608;2023-12-22T01:15:37;7.06;79.35
80579;SHT31;69939;52.402;6.608;2023-12-22T01:18:07;7.04;79.87
80579;SHT31;69939;52.402;6.608;2023-12-22T01:20:36;7.00;80.13
80579;SHT31;69939;52.402;6.608;2023-12-22T01:23:10;6.96;80.39
80579;SHT31;69939;52.402;6.608;2023-12-22T01:25:41;7.04;79.74
80579;SHT31;69939;52.402;6.608;2023-12-22T01:28:11;7.13;78.87
80579;SHT31;69939;52.402;6.608;2023-12-22T01:30:40;7.18;78.78
80579;SHT31;69939;52.402;6.608;2023-12-22T01:33:12;7.14;78.96
80579;SHT31;69939;52.402;6.608;2023-12-22T01:35:42;7.17;78.91
80579;SHT31;69939;52.402;6.608;2023-12-22T01:38:14;7.14;79.45
80579;SHT31;69939;52.402;6.608;2023-12-22T01:40:44;7.11;79.82
80579;SHT31;69939;52.402;6.608;2023-12-22T01:43:13;7.16;80.09
80579;SHT31;69939;52.402;6.608;2023-12-22T01:45:47;7.10;80.74
80579;SHT31;69939;52.402;6.608;2023-12-22T01:48:17;7.20;80.38
80579;SHT31;69939;52.402;6.608;2023-12-22T01:50:49;7.17;81.19
80579;SHT31;69939;52.402;6.608;2023-12-22T01:53:21;7.07;81.64
80579;SHT31;69939;52.402;6.608;2023-12-22T01:55:54;7.06;81.00
80579;SHT31;69939;52.402;6.608;2023-12-22T01:58:24;7.13;80.44
80579;SHT31;69939;52.402;6.608;2023-12-22T02:00:56;7.11;80.88
80579;SHT31;69939;52.402;6.608;2023-12-22T02:03:31;7.10;81.29
80579;SHT31;69939;52.402;6.608;2023-12-22T02:06:02;7.17;80.73
80579;SHT31;69939;52.402;6.608;2023-12-22T02:08:34;7.24;80.28
80579;SHT31;69939;52.402;6.608;2023-12-22T02:11:06;7.17;80.96
80579;SHT31;69939;52.402;6.608;2023-12-22T02:13:38;7.04;82.98
80579;SHT31;69939;52.402;6.608;2023-12-22T02:16:14;6.64;85.64
80579;SHT31;69939;52.402;6.608;2023-12-22T02:18:51;6.40;86.88
80579;SHT31;69939;52.402;6.608;2023-12-22T02:21:24;6.30;85.92
80579;SHT31;69939;52.402;6.608;2023-12-22T02:23:56;6.17;86.09
80579;SHT31;69939;52.402;6.608;2023-12-22T02:26:28;6.03;86.88
80579;SHT31;69939;52.402;6.608;2023-12-22T02:29:06;5.90;87.48
80579;SHT31;69939;52.402;6.608;2023-12-22T02:31:42;5.80;88.31
80579;SHT31;69939;52.402;6.608;2023-12-22T02:34:19;5.70;88.88
80579;SHT31;69939;52.402;6.608;2023-12-22T02:36:53;5.65;88.97
80579;SHT31;69939;52.402;6.608;2023-12-22T02:39:26;5.56;88.92
80579;SHT31;69939;52.402;6.608;2023-12-22T02:41:56;5.55;88.58
80579;SHT31;69939;52.402;6.608;2023-12-22T02:44:26;5.59;88.15
80579;SHT31;69939;52.402;6.608;2023-12-22T02:46:55;5.67;87.26
80579;SHT31;69939;52.402;6.608;2023-12-22T02:49:25;5.80;86.52
80579;SHT31;69939;52.402;6.608;2023-12-22T02:51:54;5.94;85.72
80579;SHT31;69939;52.402;6.608;2023-12-22T02:54:27;5.58;95.80
80579;SHT31;69939;52.402;6.608;2023-12-22T02:56:58;5.21;93.31
80579;SHT31;69939;52.402;6.608;2023-12-22T02:59:28;5.04;93.45
80579;SHT31;69939;52.402;6.608;2023-12-22T03:01:57;5.00;92.83
80579;SHT31;69939;52.402;6.608;2023-12-22T03:04:27;4.86;93.95
80579;SHT31;69939;52.402;6.608;2023-12-22T03:06:56;4.77;94.11
80579;SHT31;69939;52.402;6.608;2023-12-22T03:09:28;4.79;93.90
80579;SHT31;69939;52.402;6.608;2023-12-22T03:11:58;4.77;94.25
80579;SHT31;69939;52.402;6.608;2023-12-22T03:14:29;4.72;94.86
80579;SHT31;69939;52.402;6.608;2023-12-22T03:16:58;4.75;94.81
80579;SHT31;69939;52.402;6.608;2023-12-22T03:19:28;4.76;94.79
80579;SHT31;69939;52.402;6.608;2023-12-22T03:21:58;4.77;94.93
80579;SHT31;69939;52.402;6.608;2023-12-22T03:24:32;4.90;94.68
80579;SHT31;69939;52.402;6.608;2023-12-22T03:27:03;5.03;94.61
80579;SHT31;69939;52.402;6.608;2023-12-22T03:29:32;5.13;95.13
80579;SHT31;69939;52.402;6.608;2023-12-22T03:32:02;5.18;95.64
80579;SHT31;69939;52.402;6.608;2023-12-22T03:34:32;5.17;96.24
80579;SHT31;69939;52.402;6.608;2023-12-22T03:37:01;5.35;95.20
80579;SHT31;69939;52.402;6.608;2023-12-22T03:39:36;5.31;95.48
80579;SHT31;69939;52.402;6.608;2023-12-22T03:42:06;5.27;95.70
80579;SHT31;69939;52.402;6.608;2023-12-22T03:44:35;5.39;95.00
80579;SHT31;69939;52.402;6.608;2023-12-22T03:47:10;5.32;95.27
80579;SHT31;69939;52.402;6.608;2023-12-22T03:49:40;5.24;95.30
80579;SHT31;69939;52.402;6.608;2023-12-22T03:52:10;5.25;95.53
80579;SHT31;69939;52.402;6.608;2023-12-22T03:54:40;5.21;94.92
80579;SHT31;69939;52.402;6.608;2023-12-22T03:57:10;5.15;93.33
80579;SHT31;69939;52.402;6.608;2023-12-22T03:59:47;5.07;92.32
80579;SHT31;69939;52.402;6.608;2023-12-22T04:02:16;5.11;91.57
80579;SHT31;69939;52.402;6.608;2023-12-22T04:04:46;5.06;91.38
80579;SHT31;69939;52.402;6.608;2023-12-22T04:07:15;5.04;92.10
80579;SHT31;69939;52.402;6.608;2023-12-22T04:09:46;5.04;92.43
80579;SHT31;69939;52.402;6.608;2023-12-22T04:12:21;5.00;92.28
80579;SHT31;69939;52.402;6.608;2023-12-22T04:14:53;4.93;93.68
80579;SHT31;69939;52.402;6.608;2023-12-22T04:17:23;4.98;92.71
80579;SHT31;69939;52.402;6.608;2023-12-22T04:19:52;5.15;92.05
80579;SHT31;69939;52.402;6.608;2023-12-22T04:22:21;5.15;93.00
80579;SHT31;69939;52.402;6.608;2023-12-22T04:24:56;5.10;93.46
80579;SHT31;69939;52.402;6.608;2023-12-22T04:27:25;5.11;93.51
80579;SHT31;69939;52.402;6.608;2023-12-22T04:29:55;5.10;94.17
80579;SHT31;69939;52.402;6.608;2023-12-22T04:32:25;5.10;94.72
80579;SHT31;69939;52.402;6.608;2023-12-22T04:34:54;5.13;94.99
80579;SHT31;69939;52.402;6.608;2023-12-22T04:37:23;5.13;95.71
80579;SHT31;69939;52.402;6.608;2023-12-22T04:39:56;5.14;95.65
80579;SHT31;69939;52.402;6.608;2023-12-22T04:42:28;5.13;96.76
80579;SHT31;69939;52.402;6.608;2023-12-22T04:44:58;5.21;95.73
80579;SHT31;69939;52.402;6.608;2023-12-22T04:47:27;5.32;95.47
80579;SHT31;69939;52.402;6.608;2023-12-22T04:49:57;5.34;95.65
80579;SHT31;69939;52.402;6.608;2023-12-22T04:52:26;5.46;95.00
80579;SHT31;69939;52.402;6.608;2023-12-22T04:54:58;5.44;95.67
80579;SHT31;69939;52.402;6.608;2023-12-22T04:57:27;5.55;94.50
80579;SHT31;69939;52.402;6.608;2023-12-22T04:59:57;5.63;94.57
80579;SHT31;69939;52.402;6.608;2023-12-22T05:02:27;5.62;94.87
80579;SHT31;69939;52.402;6.608;2023-12-22T05:04:56;5.65;94.00
80579;SHT31;69939;52.402;6.608;2023-12-22T05:07:27;5.65;94.69
80579;SHT31;69939;52.402;6.608;2023-12-22T05:09:59;5.73;94.04
80579;SHT31;69939;52.402;6.608;2023-12-22T05:12:29;5.83;92.65
80579;SHT31;69939;52.402;6.608;2023-12-22T05:15:06;5.93;90.78
80579;SHT31;69939;52.402;6.608;2023-12-22T05:17:36;6.17;88.79
80579;SHT31;69939;52.402;6.608;2023-12-22T05:20:07;6.21;88.07
80579;SHT31;69939;52.402;6.608;2023-12-22T05:22:43;6.45;85.88
80579;SHT31;69939;52.402;6.608;2023-12-22T05:25:13;6.49;84.59
80579;SHT31;69939;52.402;6.608;2023-12-22T05:27:42;6.62;84.01
80579;SHT31;69939;52.402;6.608;2023-12-22T05:30:14;6.55;84.97
80579;SHT31;69939;52.402;6.608;2023-12-22T05:32:44;6.72;83.56
80579;SHT31;69939;52.402;6.608;2023-12-22T05:35:13;6.69;84.07
80579;SHT31;69939;52.402;6.608;2023-12-22T05:37:45;6.75;83.38
80579;SHT31;69939;52.402;6.608;2023-12-22T05:40:15;6.72;84.40
80579;SHT31;69939;52.402;6.608;2023-12-22T05:42:45;6.71;84.15
80579;SHT31;69939;52.402;6.608;2023-12-22T05:45:14;6.62;85.54
80579;SHT31;69939;52.402;6.608;2023-12-22T05:47:50;6.59;86.36
80579;SHT31;69939;52.402;6.608;2023-12-22T05:50:20;6.55;87.19
80579;SHT31;69939;52.402;6.608;2023-12-22T05:52:49;6.44;88.12
80579;SHT31;69939;52.402;6.608;2023-12-22T05:55:19;6.44;87.90
80579;SHT31;69939;52.402;6.608;2023-12-22T05:57:49;6.46;88.30
80579;SHT31;69939;52.402;6.608;2023-12-22T06:00:19;6.49;87.87
80579;SHT31;69939;52.402;6.608;2023-12-22T06:02:51;6.51;87.78
80579;SHT31;69939;52.402;6.608;2023-12-22T06:05:21;6.53;87.77
80579;SHT31;69939;52.402;6.608;2023-12-22T06:07:50;6.52;87.77
80579;SHT31;69939;52.402;6.608;2023-12-22T06:10:20;6.51;87.86
80579;SHT31;69939;52.402;6.608;2023-12-22T06:12:49;6.52;87.70
80579;SHT31;69939;52.402;6.608;2023-12-22T06:15:18;6.52;87.80
80579;SHT31;69939;52.402;6.608;2023-12-22T06:17:51;6.56;87.34
80579;SHT31;69939;52.402;6.608;2023-12-22T06:20:20;6.59;87.54
80579;SHT31;69939;52.402;6.608;2023-12-22T06:22:49;6.62;87.49
80579;SHT31;69939;52.402;6.608;2023-12-22T06:25:19;6.64;87.45
80579;SHT31;69939;52.402;6.608;2023-12-22T06:27:48;6.64;87.64
80579;SHT31;69939;52.402;6.608;2023-12-22T06:30:17;6.67;87.89
80579;SHT31;69939;52.402;6.608;2023-12-22T06:32:47;6.69;87.78
80579;SHT31;69939;52.402;6.608;2023-12-22T06:35:19;6.73;87.91
80579;SHT31;69939;52.402;6.608;2023-12-22T06:37:50;6.72;88.10
80579;SHT31;69939;52.402;6.608;2023-12-22T06:40:26;6.49;92.26
80579;SHT31;69939;52.402;6.608;2023-12-22T06:42:55;6.22;93.17
80579;SHT31;69939;52.402;6.608;2023-12-22T06:45:24;6.20;92.44
80579;SHT31;69939;52.402;6.608;2023-12-22T06:47:54;6.13;93.48
80579;SHT31;69939;52.402;6.608;2023-12-22T06:50:24;6.03;94.05
80579;SHT31;69939;52.402;6.608;2023-12-22T06:52:53;6.00;94.17
80579;SHT31;69939;52.402;6.608;2023-12-22T06:55:22;6.04;94.46
80579;SHT31;69939;52.402;6.608;2023-12-22T06:57:55;6.10;94.01
80579;SHT31;69939;52.402;6.608;2023-12-22T07:00:25;6.06;94.19
80579;SHT31;69939;52.402;6.608;2023-12-22T07:02:54;6.07;94.29
80579;SHT31;69939;52.402;6.608;2023-12-22T07:05:34;6.06;95.13
80579;SHT31;69939;52.402;6.608;2023-12-22T07:08:06;6.06;95.46
80579;SHT31;69939;52.402;6.608;2023-12-22T07:10:36;6.11;94.95
80579;SHT31;69939;52.402;6.608;2023-12-22T07:13:05;6.09;95.72
80579;SHT31;69939;52.402;6.608;2023-12-22T07:15:35;6.01;96.11
80579;SHT31;69939;52.402;6.608;2023-12-22T07:18:04;5.90;97.16
80579;SHT31;69939;52.402;6.608;2023-12-22T07:20:37;5.82;96.84
80579;SHT31;69939;52.402;6.608;2023-12-22T07:23:06;5.77;97.41
80579;SHT31;69939;52.402;6.608;2023-12-22T07:25:41;5.74;97.69
80579;SHT31;69939;52.402;6.608;2023-12-22T07:28:10;5.72;97.65
80579;SHT31;69939;52.402;6.608;2023-12-22T07:30:41;5.65;98.46
80579;SHT31;69939;52.402;6.608;2023-12-22T07:33:10;5.69;98.38
80579;SHT31;69939;52.402;6.608;2023-12-22T07:35:39;5.69;98.57
80579;SHT31;69939;52.402;6.608;2023-12-22T07:38:08;5.72;98.83
80579;SHT31;69939;52.402;6.608;2023-12-22T07:40:41;5.72;99.10
80579;SHT31;69939;52.402;6.608;2023-12-22T07:43:16;5.72;99.31
80579;SHT31;69939;52.402;6.608;2023-12-22T07:45:45;5.74;99.40
80579;SHT31;69939;52.402;6.608;2023-12-22T07:48:16;5.74;99.88
80579;SHT31;69939;52.402;6.608;2023-12-22T07:50:45;5.73;99.99
80579;SHT31;69939;52.402;6.608;2023-12-22T07:53:20;5.74;99.99
80579;SHT31;69939;52.402;6.608;2023-12-22T07:55:50;5.77;99.05
80579;SHT31;69939;52.402;6.608;2023-12-22T07:58:20;5.74;99.61
80579;SHT31;69939;52.402;6.608;2023-12-22T08:00:50;5.77;99.78
80579;SHT31;69939;52.402;6.608;2023-12-22T08:03:20;5.77;99.99
80579;SHT31;69939;52.402;6.608;2023-12-22T08:05:49;5.76;99.92
80579;SHT31;69939;52.402;6.608;2023-12-22T08:08:22;5.70;99.74
80579;SHT31;69939;52.402;6.608;2023-12-22T08:10:51;5.69;99.64
80579;SHT31;69939;52.402;6.608;2023-12-22T08:13:20;5.73;99.93
80579;SHT31;69939;52.402;6.608;2023-12-22T08:15:50;5.77;99.39
80579;SHT31;69939;52.402;6.608;2023-12-22T08:18:19;5.77;99.58
80579;SHT31;69939;52.402;6.608;2023-12-22T08:20:48;5.80;99.41
80579;SHT31;69939;52.402;6.608;2023-12-22T08:23:21;5.82;99.53
80579;SHT31;69939;52.402;6.608;2023-12-22T08:25:50;5.83;99.16
80579;SHT31;69939;52.402;6.608;2023-12-22T08:28:20;5.89;99.07
80579;SHT31;69939;52.402;6.608;2023-12-22T08:30:49;5.96;98.68
80579;SHT31;69939;52.402;6.608;2023-12-22T08:33:19;6.00;99.27
80579;SHT31;69939;52.402;6.608;2023-12-22T08:35:48;6.01;99.12
80579;SHT31;69939;52.402;6.608;2023-12-22T08:38:17;6.03;98.65
80579;SHT31;69939;52.402;6.608;2023-12-22T08:40:49;6.09;98.70
80579;SHT31;69939;52.402;6.608;2023-12-22T08:43:19;6.06;98.15
80579;SHT31;69939;52.402;6.608;2023-12-22T08:45:48;6.10;98.51
80579;SHT31;69939;52.402;6.608;2023-12-22T08:48:17;6.17;98.18
80579;SHT31;69939;52.402;6.608;2023-12-22T08:50:48;6.16;98.28
80579;SHT31;69939;52.402;6.608;2023-12-22T08:53:18;6.18;98.63
80579;SHT31;69939;52.402;6.608;2023-12-22T08:55:50;6.16;98.87
80579;SHT31;69939;52.402;6.608;2023-12-22T08:58:19;6.22;98.95
80579;SHT31;69939;52.402;6.608;2023-12-22T09:00:49;6.32;99.29
80579;SHT31;69939;52.402;6.608;2023-12-22T09:03:19;6.42;99.32
80579;SHT31;69939;52.402;6.608;2023-12-22T09:05:48;6.45;98.39
80579;SHT31;69939;52.402;6.608;2023-12-22T09:08:18;6.46;98.76
80579;SHT31;69939;52.402;6.608;2023-12-22T09:10:50;6.48;99.14
80579;SHT31;69939;52.402;6.608;2023-12-22T09:13:19;6.45;99.24
80579;SHT31;69939;52.402;6.608;2023-12-22T09:15:50;6.40;99.16
80579;SHT31;69939;52.402;6.608;2023-12-22T09:18:19;6.31;98.65
80579;SHT31;69939;52.402;6.608;2023-12-22T09:20:49;6.31;99.29
80579;SHT31;69939;52.402;6.608;2023-12-22T09:23:18;6.30;99.33
80579;SHT31;69939;52.402;6.608;2023-12-22T09:25:50;6.31;99.99
80579;SHT31;69939;52.402;6.608;2023-12-22T09:28:20;6.27;99.50
80579;SHT31;69939;52.402;6.608;2023-12-22T09:30:49;6.18;99.73
80579;SHT31;69939;52.402;6.608;2023-12-22T09:33:18;6.16;99.99
80579;SHT31;69939;52.402;6.608;2023-12-22T09:35:48;6.11;99.99
80579;SHT31;69939;52.402;6.608;2023-12-22T09:38:17;6.14;99.99
80579;SHT31;69939;52.402;6.608;2023-12-22T09:40:50;6.13;99.99
80579;SHT31;69939;52.402;6.608;2023-12-22T09:43:20;6.11;99.99
80579;SHT31;69939;52.402;6.608;2023-12-22T09:45:49;6.06;99.99
80579;SHT31;69939;52.402;6.608;2023-12-22T09:48:20;5.99;99.99
80579;SHT31;69939;52.402;6.608;2023-12-22T09:50:53;6.00;99.99
80579;SHT31;69939;52.402;6.608;2023-12-22T09:53:30;6.00;99.99
80579;SHT31;69939;52.402;6.608;2023-12-22T09:56:01;6.01;99.99
80579;SHT31;69939;52.402;6.608;2023-12-22T09:58:31;6.06;99.99
80579;SHT31;69939;52.402;6.608;2023-12-22T10:01:04;5.99;99.99
80579;SHT31;69939;52.402;6.608;2023-12-22T10:03:34;6.00;99.99
80579;SHT31;69939;52.402;6.608;2023-12-22T10:06:05;6.04;99.99
80579;SHT31;69939;52.402;6.608;2023-12-22T10:08:38;6.00;99.99
80579;SHT31;69939;52.402;6.608;2023-12-22T10:11:08;6.04;99.99
80579;SHT31;69939;52.402;6.608;2023-12-22T10:13:45;6.03;99.99
80579;SHT31;69939;52.402;6.608;2023-12-22T10:16:15;6.01;99.99
80579;SHT31;69939;52.402;6.608;2023-12-22T10:18:44;6.10;99.99
80579;SHT31;69939;52.402;6.608;2023-12-22T10:21:15;6.10;99.99
80579;SHT31;69939;52.402;6.608;2023-12-22T10:23:44;6.03;99.99
80579;SHT31;69939;52.402;6.608;2023-12-22T10:26:13;5.99;99.63
80579;SHT31;69939;52.402;6.608;2023-12-22T10:28:46;6.00;99.99
80579;SHT31;69939;52.402;6.608;2023-12-22T10:31:17;5.96;99.99
80579;SHT31;69939;52.402;6.608;2023-12-22T10:33:46;5.99;99.99
80579;SHT31;69939;52.402;6.608;2023-12-22T10:36:17;6.00;99.99
80579;SHT31;69939;52.402;6.608;2023-12-22T10:38:46;5.99;99.95
80579;SHT31;69939;52.402;6.608;2023-12-22T10:41:16;5.93;99.99
80579;SHT31;69939;52.402;6.608;2023-12-22T10:43:50;5.96;99.84
80579;SHT31;69939;52.402;6.608;2023-12-22T10:46:20;6.00;99.63
80579;SHT31;69939;52.402;6.608;2023-12-22T10:48:53;5.96;99.99
80579;SHT31;69939;52.402;6.608;2023-12-22T10:51:23;5.97;99.99
80579;SHT31;69939;52.402;6.608;2023-12-22T10:53:52;5.97;99.99
80579;SHT31;69939;52.402;6.608;2023-12-22T10:56:21;5.94;99.99
80579;SHT31;69939;52.402;6.608;2023-12-22T10:58:53;5.96;99.99
80579;SHT31;69939;52.402;6.608;2023-12-22T11:01:26;5.90;99.99
80579;SHT31;69939;52.402;6.608;2023-12-22T11:04:02;5.87;99.99
80579;SHT31;69939;52.402;6.608;2023-12-22T11:06:35;5.87;99.99
80579;SHT31;69939;52.402;6.608;2023-12-22T11:09:09;5.82;99.99
80579;SHT31;69939;52.402;6.608;2023-12-22T11:11:39;5.77;99.99
80579;SHT31;69939;52.402;6.608;2023-12-22T11:14:12;5.76;99.99
80579;SHT31;69939;52.402;6.608;2023-12-22T11:16:43;5.72;99.99
80579;SHT31;69939;52.402;6.608;2023-12-22T11:19:15;5.72;99.99
80579;SHT31;69939;52.402;6.608;2023-12-22T11:21:45;5.79;99.99
80579;SHT31;69939;52.402;6.608;2023-12-22T11:24:19;5.74;99.99
80579;SHT31;69939;52.402;6.608;2023-12-22T11:26:53;5.79;99.99
80579;SHT31;69939;52.402;6.608;2023-12-22T11:29:29;5.82;99.99
80579;SHT31;69939;52.402;6.608;2023-12-22T11:32:04;5.85;99.99
80579;SHT31;69939;52.402;6.608;2023-12-22T11:34:36;5.83;99.99
80579;SHT31;69939;52.402;6.608;2023-12-22T11:37:09;5.82;99.99
80579;SHT31;69939;52.402;6.608;2023-12-22T11:39:43;5.80;99.99
80579;SHT31;69939;52.402;6.608;2023-12-22T11:42:18;5.79;99.99
80579;SHT31;69939;52.402;6.608;2023-12-22T11:45:00;5.74;99.99
80579;SHT31;69939;52.402;6.608;2023-12-22T11:47:29;5.83;99.99
80579;SHT31;69939;52.402;6.608;2023-12-22T11:50:00;5.82;99.99
80579;SHT31;69939;52.402;6.608;2023-12-22T11:52:29;5.86;99.99
80579;SHT31;69939;52.402;6.608;2023-12-22T11:54:58;5.89;99.99
80579;SHT31;69939;52.402;6.608;2023-12-22T11:57:36;5.92;99.99
80579;SHT31;69939;52.402;6.608;2023-12-22T12:00:39;5.97;99.99
80579;SHT31;69939;52.402;6.608;2023-12-22T12:03:11;6.03;99.99
80579;SHT31;69939;52.402;6.608;2023-12-22T12:05:42;6.03;99.99
80579;SHT31;69939;52.402;6.608;2023-12-22T12:08:12;6.00;99.99
80579;SHT31;69939;52.402;6.608;2023-12-22T12:10:51;5.99;99.99
80579;SHT31;69939;52.402;6.608;2023-12-22T12:13:24;6.04;99.99
80579;SHT31;69939;52.402;6.608;2023-12-22T12:15:59;6.04;99.99
80579;SHT31;69939;52.402;6.608;2023-12-22T12:18:30;6.06;99.99
80579;SHT31;69939;52.402;6.608;2023-12-22T12:21:00;6.09;99.99
80579;SHT31;69939;52.402;6.608;2023-12-22T12:23:30;6.13;99.99
80579;SHT31;69939;52.402;6.608;2023-12-22T12:25:59;6.14;99.99
80579;SHT31;69939;52.402;6.608;2023-12-22T12:28:33;6.17;99.99
80579;SHT31;69939;52.402;6.608;2023-12-22T12:31:08;6.20;99.99
80579;SHT31;69939;52.402;6.608;2023-12-22T12:33:39;6.25;99.99
80579;SHT31;69939;52.402;6.608;2023-12-22T12:36:10;6.20;99.99
80579;SHT31;69939;52.402;6.608;2023-12-22T12:38:48;6.20;99.99
80579;SHT31;69939;52.402;6.608;2023-12-22T12:41:31;6.22;99.99
80579;SHT31;69939;52.402;6.608;2023-12-22T12:44:03;6.22;99.99
80579;SHT31;69939;52.402;6.608;2023-12-22T12:46:37;6.22;99.99
80579;SHT31;69939;52.402;6.608;2023-12-22T12:49:09;6.27;99.99
80579;SHT31;69939;52.402;6.608;2023-12-22T13:04:47;6.20;99.99
80579;SHT31;69939;52.402;6.608;2023-12-22T13:07:24;6.25;99.99
80579;SHT31;69939;52.402;6.608;2023-12-22T13:09:54;6.27;99.99
80579;SHT31;69939;52.402;6.608;2023-12-22T13:12:24;6.31;99.99
80579;SHT31;69939;52.402;6.608;2023-12-22T13:14:55;6.30;99.99
80579;SHT31;69939;52.402;6.608;2023-12-22T13:17:31;6.31;99.99
80579;SHT31;69939;52.402;6.608;2023-12-22T13:20:03;6.30;99.99
80579;SHT31;69939;52.402;6.608;2023-12-22T13:22:34;6.34;99.99
80579;SHT31;69939;52.402;6.608;2023-12-22T13:25:04;6.35;99.99
80579;SHT31;69939;52.402;6.608;2023-12-22T13:27:51;6.40;99.99
80579;SHT31;69939;52.402;6.608;2023-12-22T13:30:33;6.41;99.99
80579;SHT31;69939;52.402;6.608;2023-12-22T13:33:04;6.46;99.99
80579;SHT31;69939;52.402;6.608;2023-12-22T13:35:34;6.49;99.99
80579;SHT31;69939;52.402;6.608;2023-12-22T13:38:06;6.52;99.99
80579;SHT31;69939;52.402;6.608;2023-12-22T13:40:36;6.52;99.99
80579;SHT31;69939;52.402;6.608;2023-12-22T13:43:08;6.53;99.99
80579;SHT31;69939;52.402;6.608;2023-12-22T13:45:38;6.56;99.99
80579;SHT31;69939;52.402;6.608;2023-12-22T13:48:07;6.61;99.99
80579;SHT31;69939;52.402;6.608;2023-12-22T13:50:37;6.64;99.99
80579;SHT31;69939;52.402;6.608;2023-12-22T13:53:10;6.62;99.99
80579;SHT31;69939;52.402;6.608;2023-12-22T13:55:39;6.65;99.99
80579;SHT31;69939;52.402;6.608;2023-12-22T13:58:12;6.61;99.99
80579;SHT31;69939;52.402;6.608;2023-12-22T14:00:41;6.64;99.99
80579;SHT31;69939;52.402;6.608;2023-12-22T14:03:11;6.65;99.99
80579;SHT31;69939;52.402;6.608;2023-12-22T14:05:42;6.69;99.99
80579;SHT31;69939;52.402;6.608;2023-12-22T14:08:11;6.68;99.99
80579;SHT31;69939;52.402;6.608;2023-12-22T14:10:45;6.67;99.99
80579;SHT31;69939;52.402;6.608;2023-12-22T14:13:18;6.64;99.99
80579;SHT31;69939;52.402;6.608;2023-12-22T14:15:47;6.69;99.99
80579;SHT31;69939;52.402;6.608;2023-12-22T14:18:16;6.72;99.99
80579;SHT31;69939;52.402;6.608;2023-12-22T14:20:46;6.71;99.99
80579;SHT31;69939;52.402;6.608;2023-12-22T14:23:15;6.71;99.99
80579;SHT31;69939;52.402;6.608;2023-12-22T14:25:45;6.71;99.99
80579;SHT31;69939;52.402;6.608;2023-12-22T14:28:14;6.69;99.99
80579;SHT31;69939;52.402;6.608;2023-12-22T14:30:46;6.72;99.99
80579;SHT31;69939;52.402;6.608;2023-12-22T14:33:15;6.76;99.99
80579;SHT31;69939;52.402;6.608;2023-12-22T14:35:45;6.75;99.99
80579;SHT31;69939;52.402;6.608;2023-12-22T14:38:14;6.73;99.99
80579;SHT31;69939;52.402;6.608;2023-12-22T14:40:44;6.78;99.99
80579;SHT31;69939;52.402;6.608;2023-12-22T14:43:13;6.82;99.99
80579;SHT31;69939;52.402;6.608;2023-12-22T14:45:43;6.93;99.99
80579;SHT31;69939;52.402;6.608;2023-12-22T14:48:15;7.03;99.99
80579;SHT31;69939;52.402;6.608;2023-12-22T14:50:44;7.00;99.99
80579;SHT31;69939;52.402;6.608;2023-12-22T14:53:13;6.90;99.99
80579;SHT31;69939;52.402;6.608;2023-12-22T14:55:48;6.95;99.99
80579;SHT31;69939;52.402;6.608;2023-12-22T14:58:18;6.65;99.99
80579;SHT31;69939;52.402;6.608;2023-12-22T15:00:48;6.32;99.99
80579;SHT31;69939;52.402;6.608;2023-12-22T15:03:17;6.20;99.99
80579;SHT31;69939;52.402;6.608;2023-12-22T15:05:46;6.16;99.99
80579;SHT31;69939;52.402;6.608;2023-12-22T15:08:16;6.16;99.99
80579;SHT31;69939;52.402;6.608;2023-12-22T15:10:48;6.18;99.99
80579;SHT31;69939;52.402;6.608;2023-12-22T15:13:17;6.16;99.99
80579;SHT31;69939;52.402;6.608;2023-12-22T15:15:47;6.17;99.99
80579;SHT31;69939;52.402;6.608;2023-12-22T15:18:16;6.18;99.99
80579;SHT31;69939;52.402;6.608;2023-12-22T15:20:46;6.18;99.99
80579;SHT31;69939;52.402;6.608;2023-12-22T15:23:17;6.17;99.99
80579;SHT31;69939;52.402;6.608;2023-12-22T15:25:49;6.20;99.99
80579;SHT31;69939;52.402;6.608;2023-12-22T15:28:18;6.21;99.99
80579;SHT31;69939;52.402;6.608;2023-12-22T15:30:47;6.22;99.99
80579;SHT31;69939;52.402;6.608;2023-12-22T15:33:17;6.25;99.99
80579;SHT31;69939;52.402;6.608;2023-12-22T15:35:46;6.27;99.99
80579;SHT31;69939;52.402;6.608;2023-12-22T15:38:16;6.31;99.99
80579;SHT31;69939;52.402;6.608;2023-12-22T15:40:48;6.34;99.99
80579;SHT31;69939;52.402;6.608;2023-12-22T15:43:17;6.34;99.99
80579;SHT31;69939;52.402;6.608;2023-12-22T15:45:46;6.37;99.99
80579;SHT31;69939;52.402;6.608;2023-12-22T15:48:16;6.38;99.99
80579;SHT31;69939;52.402;6.608;2023-12-22T15:50:45;6.40;99.99
80579;SHT31;69939;52.402;6.608;2023-12-22T15:53:14;6.42;99.99
80579;SHT31;69939;52.402;6.608;2023-12-22T15:55:43;6.45;99.99
80579;SHT31;69939;52.402;6.608;2023-12-22T15:58:17;6.46;99.99
80579;SHT31;69939;52.402;6.608;2023-12-22T16:00:47;6.53;99.99
80579;SHT31;69939;52.402;6.608;2023-12-22T16:03:16;6.51;99.99
80579;SHT31;69939;52.402;6.608;2023-12-22T16:05:45;6.52;99.99
80579;SHT31;69939;52.402;6.608;2023-12-22T16:08:15;6.44;99.99
80579;SHT31;69939;52.402;6.608;2023-12-22T16:10:44;6.45;99.95
80579;SHT31;69939;52.402;6.608;2023-12-22T16:13:16;6.44;99.94
80579;SHT31;69939;52.402;6.608;2023-12-22T16:15:47;6.40;99.92
80579;SHT31;69939;52.402;6.608;2023-12-22T16:18:16;6.37;99.99
80579;SHT31;69939;52.402;6.608;2023-12-22T16:20:45;6.32;99.58